createdAt,value
2019-06-10T00:00:53.698Z,28.10
2019-06-10T00:03:24.580Z,28.20
2019-06-10T00:05:55.656Z,28.20
2019-06-10T00:08:26.682Z,28.20
2019-06-10T00:10:58.221Z,28.30
2019-06-10T00:13:31.241Z,28.30
2019-06-10T00:16:02.639Z,28.30
2019-06-10T00:18:41.113Z,28.30
2019-06-10T00:21:06.444Z,28.40
2019-06-10T00:23:37.422Z,28.40
2019-06-10T00:26:09.245Z,28.50
2019-06-10T00:28:40.732Z,28.50
2019-06-10T00:31:11.658Z,28.60
2019-06-10T00:33:42.587Z,28.70
2019-06-10T00:36:13.815Z,28.70
2019-06-10T00:38:44.536Z,28.80
2019-06-10T00:41:15.495Z,28.80
2019-06-10T00:43:46.300Z,28.90
2019-06-10T00:46:17.150Z,28.90
2019-06-10T00:48:50.761Z,29.00
2019-06-10T00:51:21.152Z,29.00
2019-06-10T00:53:51.729Z,29.10
2019-06-10T00:56:22.544Z,29.10
2019-06-10T00:58:53.500Z,29.20
2019-06-10T01:01:24.259Z,29.20
2019-06-10T01:03:57.040Z,29.30
2019-06-10T01:06:27.929Z,29.20
2019-06-10T01:09:00.676Z,29.30
2019-06-10T01:11:31.239Z,29.30
2019-06-10T01:14:03.073Z,29.40
2019-06-10T01:16:35.491Z,29.40
2019-06-10T01:19:06.292Z,29.40
2019-06-10T01:21:37.144Z,29.50
2019-06-10T01:24:11.586Z,29.50
2019-06-10T01:26:41.195Z,29.60
2019-06-10T01:29:13.944Z,29.60
2019-06-10T01:31:44.456Z,29.70
2019-06-10T01:34:18.251Z,29.70
2019-06-10T01:36:50.960Z,29.70
2019-06-10T01:39:22.620Z,29.80
2019-06-10T01:41:53.757Z,29.80
2019-06-10T01:44:24.812Z,29.90
2019-06-10T01:46:55.863Z,29.90
2019-06-10T01:49:26.696Z,30.00
2019-06-10T01:51:57.719Z,30.00
2019-06-10T01:54:28.694Z,30.00
2019-06-10T02:00:09.954Z,30.20
2019-06-10T02:02:44.050Z,30.20
2019-06-10T02:05:14.566Z,30.30
2019-06-10T02:07:44.602Z,30.30
2019-06-10T02:10:17.165Z,30.40
2019-06-10T02:12:57.771Z,30.50
2019-06-10T02:15:31.383Z,30.50
2019-06-10T02:18:01.185Z,30.60
2019-06-10T02:20:32.236Z,30.70
2019-06-10T02:23:03.245Z,30.70
2019-06-10T02:25:34.147Z,30.80
2019-06-10T02:28:05.064Z,30.80
2019-06-10T02:30:45.728Z,30.90
2019-06-10T02:33:11.985Z,30.90
2019-06-10T02:35:48.561Z,30.90
2019-06-10T02:38:19.846Z,31.00
2019-06-10T02:40:47.407Z,31.10
2019-06-10T02:45:54.681Z,31.20
2019-06-10T02:48:35.174Z,31.20
2019-06-10T02:51:06.752Z,31.20
2019-06-10T02:53:38.498Z,31.30
2019-06-10T02:56:12.443Z,31.30
2019-06-10T02:58:44.780Z,31.40
2019-06-10T03:01:16.730Z,31.40
2019-06-10T03:03:49.543Z,31.50
2019-06-10T03:06:21.314Z,31.50
2019-06-10T03:08:54.581Z,31.50
2019-06-10T03:11:28.074Z,31.60
2019-06-10T03:13:55.994Z,31.60
2019-06-10T03:16:26.627Z,31.70
2019-06-10T03:18:57.335Z,31.80
2019-06-10T03:21:28.528Z,31.80
2019-06-10T03:23:59.760Z,31.80
2019-06-10T03:26:32.286Z,31.90
2019-06-10T03:29:03.455Z,31.90
2019-06-10T03:31:41.516Z,31.90
2019-06-10T03:34:07.149Z,32.00
2019-06-10T03:36:38.065Z,32.10
2019-06-10T03:39:13.112Z,32.10
2019-06-10T03:42:28.198Z,32.20
2019-06-10T03:44:59.257Z,32.30
2019-06-10T03:47:32.304Z,32.30
2019-06-10T03:50:03.183Z,32.40
2019-06-10T03:52:35.176Z,32.40
2019-06-10T03:55:15.512Z,32.30
2019-06-10T03:57:46.721Z,32.30
2019-06-10T04:00:59.860Z,32.30
2019-06-10T04:02:50.512Z,32.40
2019-06-10T04:05:25.082Z,32.40
2019-06-10T04:10:52.090Z,32.40
2019-06-10T04:13:28.467Z,32.50
2019-06-10T04:16:02.323Z,32.60
2019-06-10T04:18:33.021Z,32.70
2019-06-10T04:21:05.640Z,32.70
2019-06-10T04:23:37.153Z,32.80
2019-06-10T04:26:08.778Z,32.90
2019-06-10T04:28:40.105Z,32.90
2019-06-10T04:31:12.891Z,33.00
2019-06-10T04:33:46.552Z,33.00
2019-06-10T04:36:20.372Z,32.90
2019-06-10T04:38:53.266Z,32.90
2019-06-10T04:41:27.718Z,32.90
2019-06-10T04:44:02.570Z,32.90
2019-06-10T04:46:32.959Z,33.00
2019-06-10T04:49:15.910Z,33.00
2019-06-10T04:51:53.060Z,33.00
2019-06-10T04:54:42.009Z,33.00
2019-06-10T04:57:12.793Z,32.90
2019-06-10T04:59:44.501Z,32.80
2019-06-10T05:02:16.759Z,32.80
2019-06-10T05:04:48.271Z,32.80
2019-06-10T05:07:20.942Z,32.80
2019-06-10T05:09:52.544Z,32.90
2019-06-10T05:12:24.999Z,32.90
2019-06-10T05:14:55.697Z,33.00
2019-06-10T05:17:29.309Z,33.10
2019-06-10T05:20:02.554Z,33.20
2019-06-10T05:22:33.413Z,33.30
2019-06-10T05:25:05.212Z,33.40
2019-06-10T05:27:36.143Z,33.50
2019-06-10T05:30:09.430Z,33.50
2019-06-10T05:32:40.324Z,33.60
2019-06-10T05:35:12.347Z,33.50
2019-06-10T05:37:43.443Z,33.50
2019-06-10T05:40:15.061Z,33.40
2019-06-10T05:42:46.854Z,33.30
2019-06-10T05:45:30.542Z,33.40
2019-06-10T05:48:02.815Z,33.40
2019-06-10T05:50:34.944Z,33.50
2019-06-10T05:53:06.129Z,33.50
2019-06-10T05:55:38.928Z,33.60
2019-06-10T05:58:12.784Z,33.60
2019-06-10T06:00:42.839Z,33.70
2019-06-10T06:03:13.801Z,33.70
2019-06-10T06:05:44.848Z,33.70
2019-06-10T06:08:18.550Z,33.60
2019-06-10T06:10:49.478Z,33.50
2019-06-10T06:13:20.289Z,33.50
2019-06-10T06:15:52.795Z,33.50
2019-06-10T06:18:24.008Z,33.50
2019-06-10T06:20:55.603Z,33.50
2019-06-10T06:23:26.866Z,33.50
2019-06-10T06:25:58.016Z,33.50
2019-06-10T06:28:34.674Z,33.50
2019-06-10T06:31:04.953Z,33.50
2019-06-10T06:33:37.980Z,33.40
2019-06-10T06:36:08.378Z,33.40
2019-06-10T06:38:39.187Z,33.30
2019-06-10T06:41:10.386Z,33.30
2019-06-10T06:43:44.951Z,33.40
2019-06-10T06:46:14.050Z,33.40
2019-06-10T06:48:44.917Z,33.50
2019-06-10T06:51:15.870Z,33.50
2019-06-10T06:53:51.923Z,33.60
2019-06-10T06:56:20.214Z,33.60
2019-06-10T06:58:52.753Z,33.70
2019-06-10T07:01:25.953Z,33.70
2019-06-10T07:03:57.385Z,33.70
2019-06-10T07:06:30.463Z,33.70
2019-06-10T07:09:07.767Z,33.60
2019-06-10T07:11:38.374Z,33.50
2019-06-10T07:14:10.164Z,33.40
2019-06-10T07:16:46.139Z,33.40
2019-06-10T07:19:14.749Z,33.30
2019-06-10T07:22:07.599Z,33.20
2019-06-10T07:24:17.961Z,33.20
2019-06-10T07:26:54.075Z,33.20
2019-06-10T07:29:22.583Z,33.20
2019-06-10T07:31:53.816Z,33.20
2019-06-10T07:34:24.838Z,33.20
2019-06-10T07:36:55.756Z,33.20
2019-06-10T07:39:26.740Z,33.10
2019-06-10T07:41:57.885Z,33.10
2019-06-10T07:44:28.830Z,33.10
2019-06-10T07:46:59.687Z,33.00
2019-06-10T07:49:33.490Z,33.00
2019-06-10T07:52:13.016Z,33.10
2019-06-10T07:54:36.270Z,33.10
2019-06-10T07:57:07.639Z,33.10
2019-06-10T07:59:39.541Z,33.10
2019-06-10T08:02:12.391Z,33.00
2019-06-10T08:04:45.563Z,33.10
2019-06-10T08:07:15.201Z,33.10
2019-06-10T08:09:47.423Z,33.10
2019-06-10T08:12:18.489Z,33.10
2019-06-10T08:14:49.489Z,33.00
2019-06-10T08:17:22.449Z,33.10
2019-06-10T08:19:54.322Z,33.10
2019-06-10T08:22:33.947Z,33.30
2019-06-10T08:24:57.663Z,33.40
2019-06-10T08:27:28.644Z,33.40
2019-06-10T08:30:14.090Z,33.40
2019-06-10T08:32:33.569Z,33.40
2019-06-10T08:35:04.684Z,33.30
2019-06-10T08:37:36.067Z,33.30
2019-06-10T08:40:09.168Z,33.20
2019-06-10T08:42:41.456Z,33.10
2019-06-10T08:45:12.666Z,33.10
2019-06-10T08:47:45.614Z,33.00
2019-06-10T08:50:15.939Z,33.00
2019-06-10T08:53:03.412Z,33.10
2019-06-10T08:55:19.325Z,33.10
2019-06-10T08:57:51.622Z,33.20
2019-06-10T09:00:25.658Z,33.30
2019-06-10T09:02:56.084Z,33.30
2019-06-10T09:05:28.211Z,33.30
2019-06-10T09:07:59.262Z,33.30
2019-06-10T09:10:30.910Z,33.30
2019-06-10T09:13:06.780Z,33.30
2019-06-10T09:15:38.754Z,33.30
2019-06-10T09:18:10.128Z,33.40
2019-06-10T09:20:45.917Z,33.40
2019-06-10T09:23:21.875Z,33.50
2019-06-10T09:25:57.597Z,33.60
2019-06-10T09:28:32.612Z,33.70
2019-06-10T09:31:06.226Z,33.80
2019-06-10T09:33:44.513Z,33.80
2019-06-10T09:36:13.419Z,33.80
2019-06-10T09:38:47.123Z,33.90
2019-06-10T09:41:16.485Z,33.80
2019-06-10T09:43:50.805Z,33.90
2019-06-10T09:46:23.103Z,33.90
2019-06-10T09:48:55.845Z,34.00
2019-06-10T09:51:25.767Z,34.00
2019-06-10T09:54:03.603Z,34.00
2019-06-10T09:56:29.458Z,34.00
2019-06-10T09:59:03.116Z,34.00
2019-06-10T10:01:33.562Z,34.00
2019-06-10T10:04:04.895Z,34.00
2019-06-10T10:06:36.219Z,33.90
2019-06-10T10:09:09.427Z,34.00
2019-06-10T10:11:44.078Z,33.90
2019-06-10T10:14:15.827Z,33.90
2019-06-10T10:16:49.428Z,33.90
2019-06-10T10:19:17.116Z,33.90
2019-06-10T10:21:50.164Z,33.80
2019-06-10T10:24:19.982Z,33.80
2019-06-10T10:26:53.468Z,33.80
2019-06-10T10:29:23.053Z,33.70
2019-06-10T10:31:54.100Z,33.70
2019-06-10T10:34:25.137Z,33.60
2019-06-10T10:36:57.377Z,33.60
2019-06-10T10:39:28.302Z,33.60
2019-06-10T10:41:59.136Z,33.50
2019-06-10T10:44:29.809Z,33.50
2019-06-10T10:47:03.486Z,33.50
2019-06-10T10:49:32.959Z,33.50
2019-06-10T10:52:03.894Z,33.50
2019-06-10T10:54:36.813Z,33.40
2019-06-10T10:57:06.733Z,33.30
2019-06-10T10:59:37.581Z,33.30
2019-06-10T11:02:08.531Z,33.30
2019-06-10T11:04:42.624Z,33.30
2019-06-10T11:07:14.250Z,33.30
2019-06-10T11:09:46.549Z,33.30
2019-06-10T11:12:19.285Z,33.30
2019-06-10T11:14:51.870Z,33.20
2019-06-10T11:17:23.231Z,33.20
2019-06-10T11:19:55.818Z,33.10
2019-06-10T11:22:26.385Z,33.10
2019-06-10T11:24:57.766Z,33.10
2019-06-10T11:27:29.137Z,33.00
2019-06-10T11:30:02.311Z,33.00
2019-06-10T11:32:32.763Z,32.90
2019-06-10T11:35:04.211Z,32.90
2019-06-10T11:37:35.104Z,32.80
2019-06-10T11:40:08.096Z,32.70
2019-06-10T11:42:38.936Z,32.70
2019-06-10T11:45:11.651Z,32.70
2019-06-10T11:47:42.695Z,32.60
2019-06-10T11:50:13.888Z,32.60
2019-06-10T11:52:44.576Z,32.50
2019-06-10T11:55:19.096Z,32.50
2019-06-10T11:57:47.895Z,32.50
2019-06-10T12:00:19.227Z,32.40
2019-06-10T12:02:50.909Z,32.40
2019-06-10T12:05:23.504Z,32.30
2019-06-10T12:07:57.624Z,32.30
2019-06-10T12:10:26.922Z,32.20
2019-06-10T12:13:00.841Z,32.20
2019-06-10T12:15:34.761Z,32.20
2019-06-10T12:18:07.962Z,32.20
2019-06-10T12:20:34.197Z,32.10
2019-06-10T12:23:06.082Z,32.10
2019-06-10T12:25:39.527Z,32.00
2019-06-10T12:28:09.111Z,32.00
2019-06-10T12:30:42.197Z,31.90
2019-06-10T12:33:20.002Z,31.90
2019-06-10T12:35:44.782Z,31.90
2019-06-10T12:38:15.715Z,31.90
2019-06-10T12:40:46.436Z,31.80
2019-06-10T12:43:17.837Z,31.80
2019-06-10T12:45:48.807Z,31.70
2019-06-10T12:48:22.026Z,31.70
2019-06-10T12:50:53.864Z,31.70
2019-06-10T12:53:26.435Z,31.70
2019-06-10T12:55:58.577Z,31.70
2019-06-10T12:58:29.489Z,31.70
2019-06-10T13:01:02.061Z,31.60
2019-06-10T13:03:33.634Z,31.60
2019-06-10T13:06:07.967Z,31.60
2019-06-10T13:08:38.340Z,31.60
2019-06-10T13:11:09.134Z,31.50
2019-06-10T13:13:42.595Z,31.50
2019-06-10T13:16:14.067Z,31.50
2019-06-10T13:18:44.708Z,31.50
2019-06-10T13:21:17.702Z,31.50
2019-06-10T13:23:47.765Z,31.40
2019-06-10T13:26:18.675Z,31.40
2019-06-10T13:28:49.597Z,31.40
2019-06-10T13:31:23.316Z,31.40
2019-06-10T13:33:53.220Z,31.40
2019-06-10T13:36:26.185Z,31.40
2019-06-10T13:38:57.640Z,31.40
2019-06-10T13:41:28.542Z,31.40
2019-06-10T13:43:59.976Z,31.40
2019-06-10T13:46:32.952Z,31.40
2019-06-10T13:49:06.866Z,31.30
2019-06-10T13:51:35.610Z,31.30
2019-06-10T13:54:09.195Z,31.30
2019-06-10T13:56:46.778Z,31.20
2019-06-10T13:59:11.706Z,31.10
2019-06-10T14:01:43.177Z,31.10
2019-06-10T14:04:21.520Z,31.00
2019-06-10T14:06:50.346Z,31.00
2019-06-10T14:09:18.604Z,30.90
2019-06-10T14:11:49.544Z,30.90
2019-06-10T14:14:23.025Z,30.90
2019-06-10T14:16:54.167Z,30.80
2019-06-10T14:19:25.825Z,30.80
2019-06-10T14:21:56.824Z,30.80
2019-06-10T14:24:27.810Z,30.70
2019-06-10T14:26:58.678Z,30.70
2019-06-10T14:29:29.544Z,30.60
2019-06-10T14:32:02.190Z,30.60
2019-06-10T14:34:32.772Z,30.50
2019-06-10T14:37:04.029Z,30.50
2019-06-10T14:39:34.903Z,30.40
2019-06-10T14:42:06.982Z,30.40
2019-06-10T14:44:38.152Z,30.30
2019-06-10T14:47:09.041Z,30.30
2019-06-10T14:49:42.326Z,30.20
2019-06-10T14:52:13.902Z,30.10
2019-06-10T14:54:44.163Z,30.10
2019-06-10T14:57:15.496Z,30.00
2019-06-10T14:59:47.396Z,30.00
2019-06-10T15:02:18.144Z,29.90
2019-06-10T15:04:49.125Z,29.90
2019-06-10T15:07:20.873Z,29.90
2019-06-10T15:09:52.632Z,29.90
2019-06-10T15:12:23.611Z,29.90
2019-06-10T15:14:54.603Z,29.90
2019-06-10T15:17:25.637Z,29.80
2019-06-10T15:19:56.291Z,29.80
2019-06-10T15:22:27.095Z,29.70
2019-06-10T15:25:03.039Z,29.70
2019-06-10T15:27:33.949Z,29.70
2019-06-10T15:30:12.224Z,29.60
2019-06-10T15:32:37.613Z,29.60
2019-06-10T15:35:10.673Z,29.60
2019-06-10T15:37:43.018Z,29.60
2019-06-10T15:40:16.424Z,29.60
2019-06-10T15:42:46.241Z,29.50
2019-06-10T15:45:19.441Z,29.50
2019-06-10T15:47:49.759Z,29.50
2019-06-10T15:50:23.344Z,29.50
2019-06-10T15:52:53.304Z,29.50
2019-06-10T15:55:54.536Z,29.40
2019-06-10T15:57:56.574Z,29.40
2019-06-10T16:00:28.989Z,29.40
2019-06-10T16:03:02.356Z,29.40
2019-06-10T16:05:32.178Z,29.40
2019-06-10T16:08:03.197Z,29.40
2019-06-10T16:10:34.053Z,29.40
2019-06-10T16:13:04.920Z,29.40
2019-06-10T16:15:35.861Z,29.30
2019-06-10T16:18:06.900Z,29.40
2019-06-10T16:20:37.851Z,29.30
2019-06-10T16:23:08.832Z,29.30
2019-06-10T16:25:42.468Z,29.30
2019-06-10T16:28:12.863Z,29.30
2019-06-10T16:30:44.296Z,29.30
2019-06-10T16:33:16.487Z,29.30
2019-06-10T16:35:47.555Z,29.30
2019-06-10T16:38:19.127Z,29.30
2019-06-10T16:40:53.366Z,29.30
2019-06-10T16:43:24.136Z,29.30
2019-06-10T16:45:54.444Z,29.30
2019-06-10T16:48:25.549Z,29.30
2019-06-10T16:50:56.492Z,29.20
2019-06-10T16:53:30.520Z,29.20
2019-06-10T16:55:59.676Z,29.20
2019-06-10T16:58:30.399Z,29.20
2019-06-10T17:01:03.618Z,29.20
2019-06-10T17:03:34.992Z,29.20
2019-06-10T17:06:06.472Z,29.20
2019-06-10T17:08:37.335Z,29.20
2019-06-10T17:11:08.204Z,29.20
2019-06-10T17:13:39.207Z,29.30
2019-06-10T17:16:12.531Z,29.20
2019-06-10T17:18:42.329Z,29.30
2019-06-10T17:21:13.316Z,29.30
2019-06-10T17:23:44.369Z,29.30
2019-06-10T17:26:15.118Z,29.30
2019-06-10T17:28:45.861Z,29.30
2019-06-10T17:31:16.722Z,29.30
2019-06-10T17:33:47.635Z,29.30
2019-06-10T17:36:18.674Z,29.30
2019-06-10T17:38:49.519Z,29.30
2019-06-10T17:41:21.341Z,29.30
2019-06-10T17:43:52.355Z,29.30
2019-06-10T17:46:26.202Z,29.30
2019-06-10T17:48:56.555Z,29.30
2019-06-10T17:51:28.163Z,29.30
2019-06-10T17:53:59.424Z,29.30
2019-06-10T17:56:31.757Z,29.30
2019-06-10T17:59:03.349Z,29.20
2019-06-10T18:01:35.514Z,29.20
2019-06-10T18:04:07.006Z,29.20
2019-06-10T18:06:37.953Z,29.10
2019-06-10T18:09:12.074Z,29.10
2019-06-10T18:11:42.945Z,29.00
2019-06-10T18:14:13.899Z,29.00
2019-06-10T18:16:44.745Z,29.00
2019-06-10T18:19:15.689Z,29.00
2019-06-10T18:21:46.422Z,28.90
2019-06-10T18:24:20.011Z,28.90
2019-06-10T18:26:49.515Z,28.90
2019-06-10T18:29:22.770Z,28.90
2019-06-10T18:31:53.058Z,28.90
2019-06-10T18:34:23.699Z,28.90
2019-06-10T18:36:54.539Z,28.90
2019-06-10T18:39:25.417Z,28.90
2019-06-10T18:41:56.505Z,28.90
2019-06-10T18:44:28.164Z,28.90
2019-06-10T18:46:59.160Z,28.90
2019-06-10T18:49:30.102Z,28.90
2019-06-10T18:52:01.009Z,28.80
2019-06-10T18:54:33.969Z,28.80
2019-06-10T18:57:03.972Z,28.80
2019-06-10T18:59:36.635Z,28.80
2019-06-10T19:02:07.227Z,28.80
2019-06-10T19:04:38.765Z,28.80
2019-06-10T19:07:10.450Z,28.70
2019-06-10T19:09:47.624Z,28.70
2019-06-10T19:12:13.569Z,28.70
2019-06-10T19:14:44.445Z,28.70
2019-06-10T19:17:17.385Z,28.70
2019-06-10T19:19:47.434Z,28.60
2019-06-10T19:22:18.242Z,28.60
2019-06-10T19:24:54.048Z,28.60
2019-06-10T19:27:24.775Z,28.60
2019-06-10T19:29:55.660Z,28.60
2019-06-10T19:32:26.470Z,28.60
2019-06-10T19:34:57.121Z,28.60
2019-06-10T19:37:28.002Z,28.60
2019-06-10T19:39:58.861Z,28.60
2019-06-10T19:42:29.742Z,28.50
2019-06-10T19:45:02.921Z,28.50
2019-06-10T19:47:34.191Z,28.50
2019-06-10T19:50:06.305Z,28.50
2019-06-10T19:52:38.757Z,28.50
2019-06-10T19:55:10.092Z,28.50
2019-06-10T19:57:41.543Z,28.40
2019-06-10T20:00:13.339Z,28.50
2019-06-10T20:02:46.964Z,28.50
2019-06-10T20:05:18.395Z,28.50
2019-06-10T20:07:52.777Z,28.50
2019-06-10T20:10:23.036Z,28.50
2019-06-10T20:12:53.839Z,28.50
2019-06-10T20:15:26.494Z,28.50
2019-06-10T20:17:57.239Z,28.50
2019-06-10T20:20:28.258Z,28.50
2019-06-10T20:22:59.175Z,28.50
2019-06-10T20:25:30.030Z,28.50
2019-06-10T20:28:02.670Z,28.50
2019-06-10T20:30:33.407Z,28.50
2019-06-10T20:33:04.235Z,28.50
2019-06-10T20:35:35.754Z,28.50
2019-06-10T20:38:06.750Z,28.50
2019-06-10T20:40:38.177Z,28.50
2019-06-10T20:43:08.938Z,28.50
2019-06-10T20:45:39.818Z,28.50
2019-06-10T20:48:10.777Z,28.40
2019-06-10T20:50:44.344Z,28.40
2019-06-10T20:53:18.321Z,28.40
2019-06-10T20:55:51.080Z,28.40
2019-06-10T20:58:18.460Z,28.40
2019-06-10T21:00:54.117Z,28.40
2019-06-10T21:03:23.140Z,28.40
2019-06-10T21:05:53.899Z,28.30
2019-06-10T21:08:27.487Z,28.40
2019-06-10T21:10:58.402Z,28.30
2019-06-10T21:13:29.316Z,28.30
2019-06-10T21:16:00.281Z,28.30
2019-06-10T21:18:32.935Z,28.30
2019-06-10T21:21:03.417Z,28.30
2019-06-10T21:23:34.238Z,28.30
2019-06-10T22:58:14.565Z,28.00
2019-06-10T23:00:45.716Z,28.00
2019-06-10T23:03:16.657Z,28.00
2019-06-10T23:05:48.163Z,27.90
2019-06-10T23:08:23.536Z,27.90
2019-06-10T23:10:56.601Z,27.90
2019-06-10T23:13:26.733Z,27.90
2019-06-10T23:15:58.640Z,27.90
2019-06-10T23:18:31.950Z,27.90
2019-06-10T23:21:04.215Z,27.90
2019-06-10T23:23:34.103Z,27.90
2019-06-10T23:26:04.961Z,27.90
2019-06-10T23:28:35.798Z,28.00
2019-06-10T23:31:06.737Z,28.00
2019-06-10T23:33:37.823Z,28.00
2019-06-10T23:36:08.499Z,28.10
2019-06-10T23:38:39.226Z,28.10
2019-06-10T23:41:10.041Z,28.20
2019-06-10T23:43:42.312Z,28.20
2019-06-10T23:46:13.325Z,28.20
2019-06-10T23:48:44.297Z,28.30
2019-06-10T23:51:15.199Z,28.30
2019-06-10T23:53:46.037Z,28.40
2019-06-10T23:56:16.940Z,28.40
2019-06-10T23:58:47.902Z,28.50
